Hauptseite
METAR-TAF:

METAR-TAF

Flughäfen :

Wings Field

Philadelphia / Blue Bell, Pennsylvania, Vereinigte Staaten

Breite: 40-08-15N, Länge: 075-15-54W, Höhe: 92 m

Beobachtung

Neuester Wetterbericht von vor 19 Minuten, um 21:55 UTC
Wind 6 kt aus Süd/Südwest
Temperatur 15°C
Luftfeuchtigkeit 82%
Luftdruck 1014 hPa
Sichtweite: 16.1 km
Aufgelockert bewölkt in der Höhe von 6000 ft
Geschlossene Wolkendecke in der Höhe von 7000 ft

METAR: KLOM 142155Z AUTO 21006KT 10SM SCT060 OVC070 15/12 A2993 RMK AO2 T01460125

Zeit: 18:14 (22:14 UTC)


TAF: fehlend

Wetterbeobachtungen und Prognosen von mehr als 4000 Flughäfen (METAR und TAF Bericht).

Die verfügbaren Stationen werden durch gelbe und rote Markierungen auf der Karte dargestellt.

Führen Sie die Maus auf sie, um den Namen der Station zu sehen.

Darauf klicken, um die Beobachtung von Wetterbeobachtungen und Prognosen zu sehen.

Um die Karte zu ändern : klicken Sie auf den grünen Tasten mit einem schwarzen Kreuz Zum Vergrößern, auf den grünen Button mit einem Gedankenstrich zu verkleinern, oder auf die grünen Pfeile für benachbarte Karten.


METAR-TAF: